FIN7DX EFIV-EFHK
Flight info
| Callsign | FIN7DX |
|---|---|
| Flight time | 1h 26m |
| Altitude | 39000 |
| Route | SOTIT DCT UGMOR DCT IBOSU Y86 LUSEP |
| Aircraft | E190/M-SDE3GILORVW/S |
Departure
| Time | 2026-04-26 10:38 |
|---|---|
| Airport | Ivalo Airport (EFIV) |
Arrival
| Time | 2026-04-26 12:04 |
|---|---|
| Airport | Helsinki Vantaa Airport (EFHK) |
| Time | Latitude | Longitude | Altitude | Speed | Heading |
|---|---|---|---|---|---|
| 2026-04-26 10:11 | 68.60823 | 27.41692 | 475 ft | 0 kts | 95° |
| 2026-04-26 10:27 | 68.60823 | 27.41673 | 469 ft | 4 kts | 96° |
| 2026-04-26 10:27 | 68.60826 | 27.41601 | 469 ft | 4 kts | 90° |
| 2026-04-26 10:27 | 68.60824 | 27.41528 | 469 ft | 4 kts | 78° |
| 2026-04-26 10:27 | 68.60816 | 27.41459 | 471 ft | 4 kts | 55° |
| 2026-04-26 10:28 | 68.60809 | 27.41434 | 469 ft | 1 kts | 50° |
| 2026-04-26 10:28 | 68.60809 | 27.41433 | 469 ft | 0 kts | 50° |
| 2026-04-26 10:33 | 68.60809 | 27.41435 | 475 ft | 1 kts | 43° |
| 2026-04-26 10:33 | 68.60823 | 27.41475 | 474 ft | 6 kts | 48° |
| 2026-04-26 10:34 | 68.60864 | 27.41607 | 475 ft | 12 kts | 49° |
| 2026-04-26 10:34 | 68.60936 | 27.41744 | 469 ft | 13 kts | 340° |
| 2026-04-26 10:34 | 68.61005 | 27.41570 | 475 ft | 14 kts | 316° |
| 2026-04-26 10:34 | 68.61005 | 27.41344 | 475 ft | 14 kts | 228° |
| 2026-04-26 10:35 | 68.60926 | 27.41114 | 474 ft | 19 kts | 227° |
| 2026-04-26 10:35 | 68.60826 | 27.40812 | 475 ft | 24 kts | 228° |
| 2026-04-26 10:35 | 68.60704 | 27.40446 | 473 ft | 28 kts | 226° |
| 2026-04-26 10:35 | 68.60559 | 27.40033 | 471 ft | 32 kts | 226° |
| 2026-04-26 10:36 | 68.60404 | 27.39573 | 473 ft | 34 kts | 229° |
| 2026-04-26 10:36 | 68.60241 | 27.39094 | 471 ft | 34 kts | 227° |
| 2026-04-26 10:36 | 68.60090 | 27.38646 | 469 ft | 24 kts | 226° |
| 2026-04-26 10:36 | 68.60025 | 27.38403 | 475 ft | 15 kts | 250° |
| 2026-04-26 10:37 | 68.59984 | 27.38332 | 475 ft | 3 kts | 100° |
| 2026-04-26 10:37 | 68.60000 | 27.38389 | 473 ft | 5 kts | 46° |
| 2026-04-26 10:37 | 68.60048 | 27.38528 | 475 ft | 27 kts | 47° |
| 2026-04-26 10:37 | 68.60329 | 27.39366 | 472 ft | 91 kts | 46° |
| 2026-04-26 10:38 | 68.60894 | 27.41003 | 477 ft | 143 kts | 46° |
| 2026-04-26 10:38 | 68.61609 | 27.43138 | 858 ft | 155 kts | 45° |
| 2026-04-26 10:38 | 68.62333 | 27.45321 | 1544 ft | 154 kts | 43° |
| 2026-04-26 10:38 | 68.63044 | 27.47510 | 2133 ft | 155 kts | 43° |
| 2026-04-26 10:39 | 68.63765 | 27.49784 | 2595 ft | 160 kts | 44° |
| 2026-04-26 10:39 | 68.64490 | 27.52059 | 3127 ft | 158 kts | 45° |
| 2026-04-26 10:39 | 68.65184 | 27.54339 | 3714 ft | 155 kts | 45° |
| 2026-04-26 10:39 | 68.65886 | 27.56722 | 4063 ft | 165 kts | 45° |
| 2026-04-26 10:40 | 68.66579 | 27.59277 | 4526 ft | 170 kts | 56° |
| 2026-04-26 10:40 | 68.66871 | 27.62580 | 4821 ft | 191 kts | 87° |
| 2026-04-26 10:40 | 68.66334 | 27.66132 | 4928 ft | 218 kts | 134° |
| 2026-04-26 10:40 | 68.65036 | 27.68509 | 5205 ft | 233 kts | 151° |
| 2026-04-26 10:41 | 68.63582 | 27.70725 | 5595 ft | 244 kts | 150° |
| 2026-04-26 10:41 | 68.62085 | 27.72940 | 6166 ft | 249 kts | 157° |
| 2026-04-26 10:41 | 68.60316 | 27.73697 | 6284 ft | 268 kts | 188° |
| 2026-04-26 10:41 | 68.58539 | 27.72004 | 6584 ft | 276 kts | 210° |
| 2026-04-26 10:42 | 68.56873 | 27.69372 | 7083 ft | 278 kts | 213° |
| 2026-04-26 10:42 | 68.55745 | 27.67574 | 7484 ft | 278 kts | 212° |
| 2026-04-26 10:42 | 68.53522 | 27.64080 | 8197 ft | 278 kts | 212° |
| 2026-04-26 10:42 | 68.51852 | 27.61417 | 8746 ft | 279 kts | 213° |
| 2026-04-26 10:43 | 68.50175 | 27.58739 | 9302 ft | 280 kts | 212° |
| 2026-04-26 10:43 | 68.48464 | 27.56162 | 9856 ft | 282 kts | 212° |
| 2026-04-26 10:43 | 68.46697 | 27.53506 | 9994 ft | 299 kts | 211° |
| 2026-04-26 10:43 | 68.45471 | 27.51670 | 10080 ft | 308 kts | 211° |
| 2026-04-26 10:44 | 68.43552 | 27.48807 | 10218 ft | 319 kts | 211° |
| 2026-04-26 10:44 | 68.41578 | 27.45870 | 10319 ft | 326 kts | 211° |
| 2026-04-26 10:44 | 68.39574 | 27.42904 | 10648 ft | 329 kts | 211° |
| 2026-04-26 10:44 | 68.37556 | 27.39911 | 10992 ft | 332 kts | 211° |
| 2026-04-26 10:45 | 68.35521 | 27.36903 | 11361 ft | 334 kts | 211° |
| 2026-04-26 10:45 | 68.33478 | 27.33888 | 11725 ft | 336 kts | 211° |
| 2026-04-26 10:45 | 68.31419 | 27.30859 | 12063 ft | 337 kts | 211° |
| 2026-04-26 10:45 | 68.29348 | 27.27808 | 12382 ft | 340 kts | 210° |
| 2026-04-26 10:46 | 68.27266 | 27.24770 | 12727 ft | 341 kts | 210° |
| 2026-04-26 10:46 | 68.25171 | 27.21700 | 13050 ft | 343 kts | 211° |
| 2026-04-26 10:46 | 68.23005 | 27.18955 | 13340 ft | 347 kts | 199° |
| 2026-04-26 10:46 | 68.20614 | 27.17832 | 13628 ft | 351 kts | 186° |
| 2026-04-26 10:47 | 68.18176 | 27.17196 | 13897 ft | 353 kts | 188° |
| 2026-04-26 10:47 | 68.15730 | 27.16423 | 14230 ft | 353 kts | 188° |
| 2026-04-26 10:47 | 68.13280 | 27.15625 | 14476 ft | 354 kts | 188° |
| 2026-04-26 10:47 | 68.10824 | 27.14814 | 14765 ft | 356 kts | 188° |
| 2026-04-26 10:48 | 68.08355 | 27.13979 | 14953 ft | 360 kts | 188° |
| 2026-04-26 10:48 | 68.05880 | 27.13140 | 15246 ft | 360 kts | 188° |
| 2026-04-26 10:48 | 68.03388 | 27.12297 | 15510 ft | 362 kts | 188° |
| 2026-04-26 10:48 | 68.00882 | 27.11443 | 15770 ft | 364 kts | 188° |
| 2026-04-26 10:49 | 67.98359 | 27.10588 | 16032 ft | 366 kts | 188° |
| 2026-04-26 10:49 | 67.95833 | 27.09728 | 16338 ft | 366 kts | 188° |
| 2026-04-26 10:49 | 67.93289 | 27.08862 | 16597 ft | 369 kts | 187° |
| 2026-04-26 10:49 | 67.90729 | 27.07991 | 16812 ft | 372 kts | 188° |
| 2026-04-26 10:50 | 67.88148 | 27.07119 | 17076 ft | 375 kts | 188° |
| 2026-04-26 10:50 | 67.85565 | 27.06236 | 17362 ft | 376 kts | 187° |
| 2026-04-26 10:50 | 67.82973 | 27.05359 | 17694 ft | 376 kts | 187° |
| 2026-04-26 10:50 | 67.80402 | 27.04491 | 17916 ft | 379 kts | 187° |
| 2026-04-26 10:51 | 67.77790 | 27.03612 | 18242 ft | 379 kts | 187° |
| 2026-04-26 10:51 | 67.72528 | 27.01843 | 18702 ft | 384 kts | 187° |
| 2026-04-26 10:51 | 67.69877 | 27.00956 | 18985 ft | 384 kts | 187° |
| 2026-04-26 10:52 | 67.67220 | 27.00066 | 19210 ft | 386 kts | 187° |
| 2026-04-26 10:52 | 67.64551 | 26.99179 | 19503 ft | 387 kts | 187° |
| 2026-04-26 10:52 | 67.61873 | 26.98285 | 19694 ft | 390 kts | 187° |
| 2026-04-26 10:52 | 67.59184 | 26.97395 | 20034 ft | 389 kts | 187° |
| 2026-04-26 10:53 | 67.56491 | 26.96499 | 20242 ft | 391 kts | 187° |
| 2026-04-26 10:53 | 67.53788 | 26.95608 | 20486 ft | 393 kts | 187° |
| 2026-04-26 10:53 | 67.51082 | 26.94715 | 20772 ft | 393 kts | 187° |
| 2026-04-26 10:54 | 67.45622 | 26.92923 | 21159 ft | 398 kts | 187° |
| 2026-04-26 10:54 | 67.42877 | 26.92022 | 21403 ft | 399 kts | 187° |
| 2026-04-26 10:54 | 67.40114 | 26.91123 | 21607 ft | 401 kts | 186° |
| 2026-04-26 10:54 | 67.37338 | 26.90224 | 21840 ft | 403 kts | 187° |
| 2026-04-26 10:55 | 67.34556 | 26.89318 | 22073 ft | 403 kts | 187° |
| 2026-04-26 10:55 | 67.31774 | 26.88417 | 22307 ft | 405 kts | 187° |
| 2026-04-26 10:55 | 67.28981 | 26.87515 | 22577 ft | 404 kts | 187° |
| 2026-04-26 10:55 | 67.26170 | 26.86608 | 22718 ft | 408 kts | 186° |
| 2026-04-26 10:56 | 67.23344 | 26.85698 | 22933 ft | 410 kts | 186° |
| 2026-04-26 10:56 | 67.20507 | 26.84786 | 23110 ft | 412 kts | 186° |
| 2026-04-26 10:56 | 67.17659 | 26.83873 | 23343 ft | 413 kts | 186° |
| 2026-04-26 10:56 | 67.14799 | 26.82954 | 23516 ft | 415 kts | 186° |
| 2026-04-26 10:57 | 67.11931 | 26.82042 | 23702 ft | 416 kts | 186° |
| 2026-04-26 10:57 | 67.09054 | 26.81128 | 23911 ft | 417 kts | 186° |
| 2026-04-26 10:57 | 67.06168 | 26.80207 | 24081 ft | 419 kts | 186° |
| 2026-04-26 10:57 | 67.03270 | 26.79288 | 24310 ft | 420 kts | 186° |
| 2026-04-26 10:58 | 67.00366 | 26.78365 | 24498 ft | 421 kts | 186° |
| 2026-04-26 10:58 | 66.97449 | 26.77449 | 24676 ft | 424 kts | 187° |
| 2026-04-26 10:58 | 66.94521 | 26.76528 | 24899 ft | 425 kts | 187° |
| 2026-04-26 10:58 | 66.91574 | 26.75601 | 25036 ft | 427 kts | 186° |
| 2026-04-26 10:59 | 66.88652 | 26.74689 | 25250 ft | 429 kts | 187° |
| 2026-04-26 10:59 | 66.85681 | 26.73758 | 25509 ft | 429 kts | 187° |
| 2026-04-26 10:59 | 66.82703 | 26.72826 | 25659 ft | 433 kts | 187° |
| 2026-04-26 10:59 | 66.79710 | 26.71892 | 25904 ft | 434 kts | 187° |
| 2026-04-26 11:00 | 66.76712 | 26.70953 | 26211 ft | 435 kts | 187° |
| 2026-04-26 11:00 | 66.73694 | 26.70018 | 26396 ft | 438 kts | 187° |
| 2026-04-26 11:00 | 66.70659 | 26.69080 | 26660 ft | 439 kts | 187° |
| 2026-04-26 11:00 | 66.67610 | 26.68131 | 26792 ft | 444 kts | 187° |
| 2026-04-26 11:01 | 66.64540 | 26.67192 | 27122 ft | 444 kts | 187° |
| 2026-04-26 11:01 | 66.61463 | 26.66242 | 27439 ft | 444 kts | 187° |
| 2026-04-26 11:01 | 66.58374 | 26.65290 | 27578 ft | 449 kts | 187° |
| 2026-04-26 11:01 | 66.55271 | 26.64344 | 27833 ft | 452 kts | 187° |
| 2026-04-26 11:02 | 66.52150 | 26.63395 | 28125 ft | 453 kts | 187° |
| 2026-04-26 11:02 | 66.49006 | 26.62438 | 28330 ft | 456 kts | 187° |
| 2026-04-26 11:02 | 66.45859 | 26.61477 | 28582 ft | 458 kts | 187° |
| 2026-04-26 11:02 | 66.42684 | 26.60515 | 28860 ft | 460 kts | 188° |
| 2026-04-26 11:03 | 66.39508 | 26.59553 | 29318 ft | 459 kts | 188° |
| 2026-04-26 11:03 | 66.36342 | 26.58585 | 29717 ft | 459 kts | 188° |
| 2026-04-26 11:03 | 66.33181 | 26.57627 | 30162 ft | 457 kts | 188° |
| 2026-04-26 11:03 | 66.30027 | 26.56668 | 30487 ft | 457 kts | 188° |
| 2026-04-26 11:04 | 66.26867 | 26.55715 | 30792 ft | 458 kts | 188° |
| 2026-04-26 11:04 | 66.23702 | 26.54763 | 31080 ft | 459 kts | 188° |
| 2026-04-26 11:04 | 66.20527 | 26.53812 | 31382 ft | 459 kts | 188° |
| 2026-04-26 11:04 | 66.17355 | 26.52861 | 31686 ft | 460 kts | 188° |
| 2026-04-26 11:05 | 66.14185 | 26.51913 | 31998 ft | 459 kts | 188° |
| 2026-04-26 11:05 | 66.11010 | 26.50966 | 32296 ft | 460 kts | 188° |
| 2026-04-26 11:05 | 66.07835 | 26.50023 | 32590 ft | 460 kts | 188° |
| 2026-04-26 11:05 | 66.04659 | 26.49082 | 32866 ft | 460 kts | 188° |
| 2026-04-26 11:06 | 66.01483 | 26.48145 | 33148 ft | 460 kts | 188° |
| 2026-04-26 11:06 | 65.98302 | 26.47209 | 33401 ft | 460 kts | 188° |
| 2026-04-26 11:06 | 65.95120 | 26.46277 | 33667 ft | 460 kts | 188° |
| 2026-04-26 11:06 | 65.91937 | 26.45344 | 33892 ft | 461 kts | 188° |
| 2026-04-26 11:07 | 65.88748 | 26.44413 | 34014 ft | 463 kts | 188° |
| 2026-04-26 11:07 | 65.85548 | 26.43484 | 34224 ft | 463 kts | 188° |
| 2026-04-26 11:07 | 65.82351 | 26.42554 | 34442 ft | 462 kts | 188° |
| 2026-04-26 11:07 | 65.79166 | 26.41625 | 34699 ft | 460 kts | 188° |
| 2026-04-26 11:08 | 65.76037 | 26.40713 | 34890 ft | 460 kts | 188° |
| 2026-04-26 11:08 | 65.72852 | 26.39800 | 35065 ft | 460 kts | 188° |
| 2026-04-26 11:08 | 65.69678 | 26.38888 | 35296 ft | 459 kts | 188° |
| 2026-04-26 11:08 | 65.66500 | 26.37983 | 35466 ft | 459 kts | 188° |
| 2026-04-26 11:09 | 65.63338 | 26.37076 | 35677 ft | 459 kts | 188° |
| 2026-04-26 11:09 | 65.60167 | 26.36173 | 35832 ft | 459 kts | 188° |
| 2026-04-26 11:09 | 65.56991 | 26.35267 | 36016 ft | 458 kts | 188° |
| 2026-04-26 11:09 | 65.53818 | 26.34363 | 36155 ft | 459 kts | 188° |
| 2026-04-26 11:10 | 65.50638 | 26.33462 | 36259 ft | 461 kts | 188° |
| 2026-04-26 11:10 | 65.47463 | 26.32570 | 36530 ft | 458 kts | 188° |
| 2026-04-26 11:10 | 65.44289 | 26.31698 | 36664 ft | 459 kts | 188° |
| 2026-04-26 11:10 | 65.41125 | 26.30826 | 36896 ft | 457 kts | 187° |
| 2026-04-26 11:11 | 65.34790 | 26.29109 | 37144 ft | 458 kts | 188° |
| 2026-04-26 11:11 | 65.28430 | 26.27382 | 37361 ft | 460 kts | 188° |
| 2026-04-26 11:12 | 65.25248 | 26.26500 | 37556 ft | 459 kts | 187° |
| 2026-04-26 11:12 | 65.22069 | 26.25641 | 37638 ft | 460 kts | 187° |
| 2026-04-26 11:12 | 65.18890 | 26.24783 | 37813 ft | 460 kts | 187° |
| 2026-04-26 11:12 | 65.15713 | 26.23934 | 37981 ft | 459 kts | 188° |
| 2026-04-26 11:13 | 65.09397 | 26.22242 | 38218 ft | 460 kts | 188° |
| 2026-04-26 11:13 | 65.03012 | 26.20547 | 38454 ft | 460 kts | 188° |
| 2026-04-26 11:14 | 64.96662 | 26.18858 | 38796 ft | 452 kts | 187° |
| 2026-04-26 11:14 | 64.90404 | 26.17215 | 38840 ft | 455 kts | 188° |
| 2026-04-26 11:15 | 64.84075 | 26.15533 | 38864 ft | 460 kts | 188° |
| 2026-04-26 11:15 | 64.77688 | 26.13841 | 38870 ft | 464 kts | 187° |
| 2026-04-26 11:16 | 64.71244 | 26.12145 | 38792 ft | 469 kts | 187° |
| 2026-04-26 11:16 | 64.64750 | 26.10434 | 38782 ft | 471 kts | 188° |
| 2026-04-26 11:17 | 64.58222 | 26.08514 | 38780 ft | 473 kts | 188° |
| 2026-04-26 11:17 | 64.51672 | 26.06586 | 38787 ft | 474 kts | 188° |
| 2026-04-26 11:18 | 64.45110 | 26.04668 | 38792 ft | 476 kts | 189° |
| 2026-04-26 11:18 | 64.38517 | 26.02740 | 38793 ft | 478 kts | 189° |
| 2026-04-26 11:19 | 64.31959 | 26.00835 | 38787 ft | 478 kts | 188° |
| 2026-04-26 11:19 | 64.25351 | 25.98925 | 38777 ft | 479 kts | 188° |
| 2026-04-26 11:20 | 64.19803 | 25.97329 | 38783 ft | 481 kts | 189° |
| 2026-04-26 11:20 | 64.12055 | 25.95109 | 38788 ft | 483 kts | 188° |
| 2026-04-26 11:21 | 64.05396 | 25.93211 | 38788 ft | 484 kts | 188° |
| 2026-04-26 11:21 | 63.98713 | 25.91314 | 38790 ft | 485 kts | 188° |
| 2026-04-26 11:22 | 63.92049 | 25.89432 | 38770 ft | 482 kts | 188° |
| 2026-04-26 11:22 | 63.85402 | 25.87565 | 38776 ft | 482 kts | 188° |
| 2026-04-26 11:23 | 63.78738 | 25.85699 | 38781 ft | 484 kts | 189° |
| 2026-04-26 11:23 | 63.72060 | 25.83840 | 38779 ft | 483 kts | 188° |
| 2026-04-26 11:24 | 63.65396 | 25.81995 | 38786 ft | 482 kts | 188° |
| 2026-04-26 11:24 | 63.58724 | 25.80162 | 38774 ft | 484 kts | 188° |
| 2026-04-26 11:25 | 63.52023 | 25.78314 | 38778 ft | 485 kts | 188° |
| 2026-04-26 11:25 | 63.45334 | 25.76487 | 38777 ft | 483 kts | 188° |
| 2026-04-26 11:26 | 63.38637 | 25.74667 | 38776 ft | 485 kts | 189° |
| 2026-04-26 11:26 | 63.31923 | 25.72850 | 38780 ft | 485 kts | 188° |
| 2026-04-26 11:27 | 63.25219 | 25.71044 | 38785 ft | 486 kts | 188° |
| 2026-04-26 11:27 | 63.18538 | 25.69250 | 38771 ft | 487 kts | 188° |
| 2026-04-26 11:28 | 63.11788 | 25.67451 | 38776 ft | 488 kts | 188° |
| 2026-04-26 11:28 | 63.05061 | 25.65669 | 38771 ft | 485 kts | 188° |
| 2026-04-26 11:29 | 62.98371 | 25.63901 | 38781 ft | 483 kts | 189° |
| 2026-04-26 11:29 | 62.91665 | 25.62131 | 38776 ft | 487 kts | 188° |
| 2026-04-26 11:30 | 62.86039 | 25.60658 | 38773 ft | 485 kts | 188° |
| 2026-04-26 11:30 | 62.78275 | 25.58632 | 38769 ft | 484 kts | 188° |
| 2026-04-26 11:31 | 62.71579 | 25.56890 | 38765 ft | 487 kts | 188° |
| 2026-04-26 11:31 | 62.64871 | 25.55158 | 38778 ft | 485 kts | 188° |
| 2026-04-26 11:32 | 62.58179 | 25.53440 | 38772 ft | 484 kts | 188° |
| 2026-04-26 11:32 | 62.51552 | 25.51743 | 38720 ft | 473 kts | 188° |
| 2026-04-26 11:33 | 62.45063 | 25.50092 | 38757 ft | 467 kts | 188° |
| 2026-04-26 11:33 | 62.38658 | 25.48465 | 38748 ft | 467 kts | 188° |
| 2026-04-26 11:34 | 62.32208 | 25.46838 | 38754 ft | 468 kts | 188° |
| 2026-04-26 11:34 | 62.25744 | 25.45202 | 38762 ft | 467 kts | 188° |
| 2026-04-26 11:35 | 62.19305 | 25.43590 | 38758 ft | 466 kts | 188° |
| 2026-04-26 11:35 | 62.13917 | 25.42242 | 38750 ft | 464 kts | 189° |
| 2026-04-26 11:36 | 62.07550 | 25.40660 | 38754 ft | 463 kts | 188° |
| 2026-04-26 11:36 | 62.01188 | 25.39082 | 38747 ft | 458 kts | 188° |
| 2026-04-26 11:37 | 61.94827 | 25.37515 | 38177 ft | 460 kts | 188° |
| 2026-04-26 11:37 | 61.91696 | 25.36748 | 37866 ft | 450 kts | 189° |
| 2026-04-26 11:37 | 61.88572 | 25.35982 | 37179 ft | 451 kts | 189° |
| 2026-04-26 11:38 | 61.85479 | 25.35224 | 36630 ft | 446 kts | 189° |
| 2026-04-26 11:38 | 61.82401 | 25.34474 | 36017 ft | 444 kts | 188° |
| 2026-04-26 11:38 | 61.79349 | 25.33729 | 35433 ft | 440 kts | 188° |
| 2026-04-26 11:38 | 61.76313 | 25.32995 | 34820 ft | 438 kts | 188° |
| 2026-04-26 11:39 | 61.73286 | 25.32261 | 34250 ft | 436 kts | 189° |
| 2026-04-26 11:39 | 61.70275 | 25.31526 | 33623 ft | 436 kts | 188° |
| 2026-04-26 11:39 | 61.67267 | 25.30801 | 33083 ft | 433 kts | 189° |
| 2026-04-26 11:39 | 61.64267 | 25.30076 | 32490 ft | 435 kts | 188° |
| 2026-04-26 11:40 | 61.61261 | 25.29364 | 31940 ft | 436 kts | 187° |
| 2026-04-26 11:40 | 61.58219 | 25.29125 | 31375 ft | 438 kts | 182° |
| 2026-04-26 11:40 | 61.55172 | 25.29047 | 30770 ft | 438 kts | 182° |
| 2026-04-26 11:40 | 61.52124 | 25.28930 | 30202 ft | 438 kts | 182° |
| 2026-04-26 11:41 | 61.49059 | 25.28799 | 29546 ft | 441 kts | 182° |
| 2026-04-26 11:42 | 61.27989 | 25.27741 | 25559 ft | 414 kts | 182° |
| 2026-04-26 11:43 | 61.25144 | 25.27629 | 25009 ft | 404 kts | 183° |
| 2026-04-26 11:43 | 61.22367 | 25.27520 | 24492 ft | 395 kts | 182° |
| 2026-04-26 11:43 | 61.19650 | 25.27420 | 23951 ft | 386 kts | 181° |
| 2026-04-26 11:43 | 61.16989 | 25.27322 | 23463 ft | 378 kts | 183° |
| 2026-04-26 11:44 | 61.14378 | 25.27216 | 22445 ft | 379 kts | 182° |
| 2026-04-26 11:44 | 61.11777 | 25.27258 | 22038 ft | 365 kts | 181° |
| 2026-04-26 11:44 | 61.09258 | 25.27325 | 21533 ft | 358 kts | 181° |
| 2026-04-26 11:44 | 61.06774 | 25.27379 | 21089 ft | 357 kts | 181° |
| 2026-04-26 11:45 | 61.04278 | 25.27427 | 20628 ft | 361 kts | 182° |
| 2026-04-26 11:45 | 61.01763 | 25.27466 | 20151 ft | 361 kts | 180° |
| 2026-04-26 11:45 | 60.99260 | 25.27523 | 19686 ft | 359 kts | 181° |
| 2026-04-26 11:45 | 60.96805 | 25.27566 | 19201 ft | 356 kts | 181° |
| 2026-04-26 11:46 | 60.94335 | 25.27606 | 18754 ft | 354 kts | 181° |
| 2026-04-26 11:46 | 60.91884 | 25.27650 | 18280 ft | 351 kts | 181° |
| 2026-04-26 11:46 | 60.89453 | 25.27688 | 17797 ft | 348 kts | 183° |
| 2026-04-26 11:46 | 60.87035 | 25.27730 | 17369 ft | 346 kts | 180° |
| 2026-04-26 11:47 | 60.84625 | 25.27790 | 16908 ft | 347 kts | 181° |
| 2026-04-26 11:47 | 60.82217 | 25.27828 | 16454 ft | 343 kts | 181° |
| 2026-04-26 11:47 | 60.79861 | 25.27869 | 15999 ft | 335 kts | 181° |
| 2026-04-26 11:47 | 60.77552 | 25.27909 | 15575 ft | 329 kts | 181° |
| 2026-04-26 11:48 | 60.75274 | 25.27944 | 15140 ft | 326 kts | 181° |
| 2026-04-26 11:48 | 60.73015 | 25.27979 | 14702 ft | 323 kts | 181° |
| 2026-04-26 11:48 | 60.70775 | 25.28015 | 14299 ft | 322 kts | 181° |
| 2026-04-26 11:48 | 60.68544 | 25.28048 | 13880 ft | 320 kts | 181° |
| 2026-04-26 11:49 | 60.66298 | 25.28091 | 13450 ft | 325 kts | 181° |
| 2026-04-26 11:49 | 60.64033 | 25.28127 | 13030 ft | 322 kts | 180° |
| 2026-04-26 11:49 | 60.61795 | 25.28163 | 12603 ft | 320 kts | 180° |
| 2026-04-26 11:49 | 60.59589 | 25.28199 | 12185 ft | 315 kts | 180° |
| 2026-04-26 11:50 | 60.57406 | 25.28235 | 11764 ft | 313 kts | 180° |
| 2026-04-26 11:50 | 60.55225 | 25.28272 | 11360 ft | 314 kts | 180° |
| 2026-04-26 11:50 | 60.53041 | 25.28309 | 10941 ft | 317 kts | 180° |
| 2026-04-26 11:50 | 60.50829 | 25.28345 | 10546 ft | 316 kts | 180° |
| 2026-04-26 11:51 | 60.48613 | 25.28383 | 10111 ft | 321 kts | 180° |
| 2026-04-26 11:51 | 60.46388 | 25.28415 | 9712 ft | 320 kts | 180° |
| 2026-04-26 11:51 | 60.44177 | 25.28454 | 9271 ft | 316 kts | 180° |
| 2026-04-26 11:51 | 60.42003 | 25.28494 | 8882 ft | 310 kts | 180° |
| 2026-04-26 11:52 | 60.39862 | 25.28531 | 8487 ft | 305 kts | 181° |
| 2026-04-26 11:52 | 60.37755 | 25.28564 | 8090 ft | 299 kts | 181° |
| 2026-04-26 11:52 | 60.35707 | 25.28601 | 7681 ft | 290 kts | 181° |
| 2026-04-26 11:52 | 60.33724 | 25.28634 | 7336 ft | 281 kts | 181° |
| 2026-04-26 11:53 | 60.31794 | 25.28665 | 6949 ft | 274 kts | 182° |
| 2026-04-26 11:53 | 60.29914 | 25.28705 | 6601 ft | 267 kts | 181° |
| 2026-04-26 11:53 | 60.28074 | 25.28772 | 6265 ft | 262 kts | 181° |
| 2026-04-26 11:54 | 60.24473 | 25.28914 | 5598 ft | 258 kts | 181° |
| 2026-04-26 11:54 | 60.22676 | 25.28979 | 5243 ft | 260 kts | 181° |
| 2026-04-26 11:54 | 60.20866 | 25.29047 | 4920 ft | 260 kts | 181° |
| 2026-04-26 11:54 | 60.19102 | 25.29109 | 4871 ft | 252 kts | 181° |
| 2026-04-26 11:55 | 60.17331 | 25.29172 | 4679 ft | 255 kts | 181° |
| 2026-04-26 11:55 | 60.15559 | 25.29228 | 4577 ft | 254 kts | 181° |
| 2026-04-26 11:55 | 60.13800 | 25.29285 | 4531 ft | 251 kts | 181° |
| 2026-04-26 11:55 | 60.12100 | 25.29298 | 4407 ft | 243 kts | 187° |
| 2026-04-26 11:56 | 60.10581 | 25.28247 | 4168 ft | 222 kts | 225° |
| 2026-04-26 11:56 | 60.09724 | 25.25965 | 3914 ft | 195 kts | 261° |
| 2026-04-26 11:56 | 60.09284 | 25.23475 | 3811 ft | 186 kts | 260° |
| 2026-04-26 11:56 | 60.08821 | 25.21073 | 3764 ft | 185 kts | 261° |
| 2026-04-26 11:57 | 60.08542 | 25.18648 | 3716 ft | 171 kts | 287° |
| 2026-04-26 11:57 | 60.09051 | 25.16757 | 3677 ft | 150 kts | 330° |
| 2026-04-26 11:57 | 60.10025 | 25.16138 | 3716 ft | 148 kts | 347° |
| 2026-04-26 11:57 | 60.11059 | 25.15958 | 3686 ft | 151 kts | 1° |
| 2026-04-26 11:58 | 60.12107 | 25.16114 | 3660 ft | 151 kts | 360° |
| 2026-04-26 11:58 | 60.13153 | 25.16059 | 3545 ft | 151 kts | 345° |
| 2026-04-26 11:58 | 60.14134 | 25.15458 | 3592 ft | 146 kts | 347° |
| 2026-04-26 11:58 | 60.15124 | 25.14898 | 3585 ft | 151 kts | 344° |
| 2026-04-26 11:59 | 60.16141 | 25.14244 | 3365 ft | 154 kts | 342° |
| 2026-04-26 11:59 | 60.17147 | 25.13512 | 3119 ft | 153 kts | 339° |
| 2026-04-26 11:59 | 60.18013 | 25.12265 | 2901 ft | 155 kts | 322° |
| 2026-04-26 11:59 | 60.18769 | 25.10748 | 2664 ft | 150 kts | 327° |
| 2026-04-26 12:00 | 60.19612 | 25.09755 | 2550 ft | 130 kts | 335° |
| 2026-04-26 12:00 | 60.20367 | 25.08990 | 2502 ft | 117 kts | 338° |
| 2026-04-26 12:00 | 60.21110 | 25.08348 | 2373 ft | 116 kts | 340° |
| 2026-04-26 12:00 | 60.21844 | 25.07736 | 2255 ft | 113 kts | 339° |
| 2026-04-26 12:01 | 60.22555 | 25.07111 | 2123 ft | 109 kts | 340° |
| 2026-04-26 12:01 | 60.23254 | 25.06497 | 2059 ft | 110 kts | 339° |
| 2026-04-26 12:01 | 60.23945 | 25.05857 | 2048 ft | 110 kts | 339° |
| 2026-04-26 12:01 | 60.24640 | 25.05157 | 1965 ft | 112 kts | 336° |
| 2026-04-26 12:02 | 60.25326 | 25.04394 | 1843 ft | 114 kts | 335° |
| 2026-04-26 12:02 | 60.25791 | 25.03883 | 1682 ft | 116 kts | 336° |
| 2026-04-26 12:02 | 60.26734 | 25.02873 | 1369 ft | 115 kts | 336° |
| 2026-04-26 12:02 | 60.27441 | 25.02154 | 1127 ft | 114 kts | 337° |
| 2026-04-26 12:03 | 60.28166 | 25.01439 | 914 ft | 117 kts | 335° |
| 2026-04-26 12:03 | 60.28880 | 25.00697 | 687 ft | 115 kts | 333° |
| 2026-04-26 12:03 | 60.29603 | 24.99956 | 504 ft | 117 kts | 333° |
| 2026-04-26 12:03 | 60.30325 | 24.99232 | 295 ft | 115 kts | 332° |
| 2026-04-26 12:04 | 60.31015 | 24.98516 | 159 ft | 106 kts | 332° |
| 2026-04-26 12:04 | 60.31592 | 24.97923 | 152 ft | 82 kts | 333° |
| 2026-04-26 12:04 | 60.32052 | 24.97454 | 153 ft | 67 kts | 333° |
| 2026-04-26 12:04 | 60.32307 | 24.97189 | 157 ft | 24 kts | 333° |
| 2026-04-26 12:05 | 60.32388 | 24.97063 | 162 ft | 11 kts | 289° |
| 2026-04-26 12:05 | 60.32367 | 24.96923 | 163 ft | 10 kts | 229° |
| 2026-04-26 12:05 | 60.32341 | 24.96868 | 164 ft | 4 kts | 227° |
| 2026-04-26 12:05 | 60.32317 | 24.96815 | 164 ft | 7 kts | 228° |
| 2026-04-26 12:06 | 60.32269 | 24.96729 | 165 ft | 11 kts | 200° |
| 2026-04-26 12:06 | 60.32187 | 24.96803 | 165 ft | 15 kts | 150° |
| 2026-04-26 12:06 | 60.32098 | 24.96856 | 165 ft | 13 kts | 212° |
| 2026-04-26 12:06 | 60.32031 | 24.96712 | 165 ft | 15 kts | 227° |
| 2026-04-26 12:07 | 60.31962 | 24.96560 | 165 ft | 13 kts | 227° |
| 2026-04-26 12:07 | 60.31909 | 24.96443 | 165 ft | 9 kts | 228° |
| 2026-04-26 12:07 | 60.31875 | 24.96403 | 165 ft | 4 kts | 160° |
| 2026-04-26 12:07 | 60.31850 | 24.96447 | 165 ft | 3 kts | 137° |
| 2026-04-26 12:08 | 60.31839 | 24.96469 | 165 ft | 2 kts | 137° |
| 2026-04-26 12:08 | 60.31838 | 24.96471 | 165 ft | 0 kts | 137° |